createdAt,value
2019-01-19T00:02:02.288Z,6.06
2019-01-19T00:05:24.456Z,6.17
2019-01-19T00:08:16.779Z,6.20
2019-01-19T00:11:21.568Z,6.24
2019-01-19T00:14:28.386Z,6.33
2019-01-19T00:17:40.648Z,6.41
2019-01-19T00:20:51.066Z,6.15
2019-01-19T00:23:57.096Z,5.79
2019-01-19T00:27:12.099Z,5.54
2019-01-19T00:30:07.608Z,5.53
2019-01-19T00:33:01.196Z,5.21
2019-01-19T00:35:56.033Z,4.81
2019-01-19T00:38:59.672Z,4.35
2019-01-19T00:42:03.391Z,4.07
2019-01-19T00:44:44.696Z,4.30
2019-01-19T00:48:01.340Z,4.26
2019-01-19T00:51:13.143Z,4.32
2019-01-19T00:54:14.694Z,4.46
2019-01-19T00:57:10.254Z,4.71
2019-01-19T00:59:44.196Z,5.08
2019-01-19T01:02:38.352Z,5.28
2019-01-19T01:05:38.368Z,5.50
2019-01-19T01:08:57.975Z,5.55
2019-01-19T01:11:57.092Z,5.65
2019-01-19T01:15:06.441Z,5.81
2019-01-19T01:17:53.792Z,5.90
2019-01-19T01:21:28.135Z,5.99
2019-01-19T01:24:39.820Z,6.07
2019-01-19T01:27:38.701Z,6.31
2019-01-19T01:30:33.426Z,6.22
2019-01-19T01:33:42.848Z,6.30
2019-01-19T01:36:56.143Z,6.37
2019-01-19T01:40:15.716Z,6.32
2019-01-19T01:43:11.678Z,6.30
2019-01-19T01:46:30.767Z,6.55
2019-01-19T01:49:28.393Z,6.37
2019-01-19T01:52:46.168Z,6.42
2019-01-19T01:55:36.534Z,6.50
2019-01-19T01:58:42.832Z,6.24
2019-01-19T02:01:37.228Z,6.38
2019-01-19T02:04:53.823Z,6.47
2019-01-19T02:08:00.830Z,6.47
2019-01-19T02:10:37.479Z,6.59
2019-01-19T02:13:32.922Z,6.19
2019-01-19T02:16:52.183Z,5.90
2019-01-19T02:19:55.825Z,5.54
2019-01-19T02:23:09.329Z,5.52
2019-01-19T02:26:37.877Z,5.79
2019-01-19T02:30:00.215Z,5.08
2019-01-19T02:33:19.196Z,4.73
2019-01-19T02:36:30.912Z,4.56
2019-01-19T02:39:48.207Z,4.14
2019-01-19T02:43:06.751Z,4.21
2019-01-19T02:46:10.089Z,4.42
2019-01-19T02:49:20.370Z,4.57
2019-01-19T02:52:10.339Z,4.51
2019-01-19T02:55:29.520Z,4.42
2019-01-19T02:58:30.343Z,4.33
2019-01-19T03:01:40.774Z,4.44
2019-01-19T03:04:43.417Z,4.48
2019-01-19T03:08:14.878Z,4.69
2019-01-19T03:11:20.552Z,4.89
2019-01-19T03:14:29.639Z,4.91
2019-01-19T03:17:52.212Z,5.11
2019-01-19T03:20:45.925Z,5.02
2019-01-19T03:23:47.194Z,5.12
2019-01-19T03:26:41.571Z,5.32
2019-01-19T03:29:28.620Z,5.37
2019-01-19T03:32:21.880Z,5.16
2019-01-19T03:35:12.102Z,5.21
2019-01-19T03:38:03.691Z,5.35
2019-01-19T03:41:20.194Z,5.65
2019-01-19T03:44:36.762Z,5.62
2019-01-19T03:47:47.326Z,5.73
2019-01-19T03:50:55.973Z,5.49
2019-01-19T03:53:57.884Z,5.53
2019-01-19T03:57:20.316Z,5.68
2019-01-19T04:00:07.361Z,5.61
2019-01-19T04:03:22.710Z,5.70
2019-01-19T04:06:42.048Z,5.55
2019-01-19T04:09:40.342Z,5.33
2019-01-19T04:13:08.841Z,5.59
2019-01-19T04:16:17.692Z,5.49
2019-01-19T04:19:34.024Z,5.22
2019-01-19T04:22:27.342Z,5.21
2019-01-19T04:25:45.147Z,5.26
2019-01-19T04:28:16.944Z,5.24
2019-01-19T04:30:46.571Z,5.18
2019-01-19T04:33:16.198Z,5.30
2019-01-19T04:35:45.863Z,5.38
2019-01-19T04:38:15.488Z,5.20
2019-01-19T04:40:45.096Z,5.25
2019-01-19T04:43:14.896Z,5.22
2019-01-19T04:45:44.526Z,5.37
2019-01-19T04:48:14.713Z,5.39
2019-01-19T04:50:44.389Z,5.29
2019-01-19T04:53:14.011Z,5.72
2019-01-19T04:55:43.656Z,6.28
2019-01-19T04:58:13.334Z,6.55
2019-01-19T05:00:42.973Z,5.99
2019-01-19T05:03:12.593Z,5.82
2019-01-19T05:05:42.333Z,5.82
2019-01-19T05:08:11.988Z,5.69
2019-01-19T05:10:41.656Z,5.39
2019-01-19T05:13:11.336Z,5.16
2019-01-19T05:15:40.970Z,5.22
2019-01-19T05:18:10.853Z,5.28
2019-01-19T05:20:40.596Z,5.28
2019-01-19T05:23:10.828Z,5.30
2019-01-19T05:25:40.489Z,5.32
2019-01-19T05:28:10.145Z,5.32
2019-01-19T05:30:39.790Z,5.38
2019-01-19T05:33:09.410Z,5.20
2019-01-19T05:35:39.122Z,5.11
2019-01-19T05:38:08.797Z,5.35
2019-01-19T05:40:38.428Z,5.22
2019-01-19T05:43:08.203Z,5.18
2019-01-19T05:45:37.867Z,5.31
2019-01-19T05:48:07.494Z,5.31
2019-01-19T05:50:37.183Z,5.26
2019-01-19T05:53:06.816Z,5.28
2019-01-19T05:55:36.587Z,5.20
2019-01-19T05:58:06.267Z,5.20
2019-01-19T06:00:36.868Z,5.53
2019-01-19T06:03:07.034Z,4.79
2019-01-19T06:05:38.488Z,4.62
2019-01-19T06:08:08.181Z,4.17
2019-01-19T06:10:37.798Z,4.11
2019-01-19T06:13:07.489Z,4.39
2019-01-19T06:15:37.160Z,4.63
2019-01-19T06:18:07.044Z,5.17
2019-01-19T06:20:36.750Z,5.37
2019-01-19T06:23:06.506Z,5.46
2019-01-19T06:25:36.127Z,5.68
2019-01-19T06:28:06.016Z,5.76
2019-01-19T06:30:35.677Z,5.79
2019-01-19T06:33:05.547Z,6.65
2019-01-19T06:35:35.265Z,6.77
2019-01-19T06:38:04.923Z,5.94
2019-01-19T06:40:34.834Z,6.05
2019-01-19T06:43:04.757Z,6.20
2019-01-19T06:45:34.371Z,6.23
2019-01-19T06:48:04.124Z,5.94
2019-01-19T06:50:33.817Z,5.63
2019-01-19T06:53:03.453Z,5.37
2019-01-19T06:55:35.338Z,5.31
2019-01-19T06:58:05.179Z,5.19
2019-01-19T07:00:34.828Z,5.34
2019-01-19T07:03:04.605Z,5.44
2019-01-19T07:05:34.346Z,5.41
2019-01-19T07:08:03.985Z,6.08
2019-01-19T07:10:33.657Z,6.47
2019-01-19T07:13:03.486Z,6.36
2019-01-19T07:15:33.582Z,6.94
2019-01-19T07:18:03.303Z,7.27
2019-01-19T07:20:33.044Z,7.26
2019-01-19T07:23:02.720Z,6.37
2019-01-19T07:25:32.360Z,6.67
2019-01-19T07:28:02.120Z,7.32
2019-01-19T07:30:31.722Z,7.53
2019-01-19T07:33:01.354Z,7.55
2019-01-19T07:35:31.043Z,7.21
2019-01-19T07:38:00.690Z,7.23
2019-01-19T07:40:30.360Z,7.19
2019-01-19T07:43:03.770Z,6.93
2019-01-19T07:45:33.411Z,7.42
2019-01-19T07:48:03.401Z,7.28
2019-01-19T07:50:33.238Z,7.48
2019-01-19T07:53:02.919Z,7.22
2019-01-19T07:55:32.561Z,7.01
2019-01-19T07:58:02.281Z,6.83
2019-01-19T08:00:32.850Z,6.18
2019-01-19T08:03:02.700Z,6.11
2019-01-19T08:05:32.435Z,6.25
2019-01-19T08:08:02.047Z,7.09
2019-01-19T08:10:31.675Z,6.72
2019-01-19T08:13:01.407Z,6.44
2019-01-19T08:15:31.248Z,7.68
2019-01-19T08:18:00.929Z,8.28
2019-01-19T08:20:30.746Z,7.52
2019-01-19T08:23:00.382Z,7.44
2019-01-19T08:25:30.031Z,7.68
2019-01-19T08:28:01.314Z,7.68
2019-01-19T08:30:31.647Z,7.85
2019-01-19T08:33:01.243Z,8.06
2019-01-19T08:35:31.460Z,7.96
2019-01-19T08:38:01.056Z,7.90
2019-01-19T08:40:33.106Z,7.27
2019-01-19T08:43:24.684Z,8.01
2019-01-19T08:45:54.344Z,7.84
2019-01-19T08:48:24.158Z,7.96
2019-01-19T08:50:53.912Z,7.91
2019-01-19T08:53:23.541Z,8.18
2019-01-19T08:55:53.310Z,7.79
2019-01-19T08:58:23.097Z,8.51
2019-01-19T09:00:52.751Z,8.78
2019-01-19T09:03:22.370Z,8.57
2019-01-19T09:05:52.172Z,8.61
2019-01-19T09:08:21.834Z,8.51
2019-01-19T09:10:51.477Z,8.02
2019-01-19T09:13:21.268Z,7.77
2019-01-19T09:15:52.005Z,7.85
2019-01-19T09:18:21.639Z,7.93
2019-01-19T09:20:51.388Z,7.90
2019-01-19T09:23:25.107Z,7.41
2019-01-19T09:25:54.820Z,8.06
2019-01-19T09:28:24.435Z,7.87
2019-01-19T09:30:54.143Z,8.60
2019-01-19T09:33:23.956Z,8.76
2019-01-19T09:35:53.574Z,9.17
2019-01-19T09:38:23.213Z,9.35
2019-01-19T09:40:53.155Z,9.61
2019-01-19T09:43:22.790Z,9.64
2019-01-19T09:45:52.419Z,9.58
2019-01-19T09:48:22.184Z,9.72
2019-01-19T09:50:51.790Z,9.87
2019-01-19T09:53:21.424Z,9.75
2019-01-19T09:55:51.087Z,9.50
2019-01-19T09:58:20.731Z,9.66
2019-01-19T10:00:50.387Z,10.02
2019-01-19T10:03:20.043Z,9.89
2019-01-19T10:05:49.654Z,10.11
2019-01-19T10:08:19.254Z,9.77
2019-01-19T10:10:49.077Z,10.29
2019-01-19T10:13:18.676Z,10.49
2019-01-19T10:15:48.300Z,10.00
2019-01-19T10:18:18.633Z,10.23
2019-01-19T10:20:48.432Z,9.61
2019-01-19T10:23:18.161Z,10.32
2019-01-19T10:25:47.839Z,10.59
2019-01-19T10:28:17.513Z,10.59
2019-01-19T10:30:47.162Z,10.65
2019-01-19T10:33:16.837Z,10.87
2019-01-19T10:35:46.433Z,10.84
2019-01-19T10:38:16.048Z,10.66
2019-01-19T10:40:45.748Z,11.29
2019-01-19T10:43:15.383Z,11.12
2019-01-19T10:45:45.027Z,10.77
2019-01-19T10:48:14.940Z,10.68
2019-01-19T10:50:44.550Z,11.49
2019-01-19T10:53:14.232Z,11.49
2019-01-19T10:55:44.005Z,10.98
2019-01-19T10:58:13.671Z,10.91
2019-01-19T11:00:43.309Z,10.88
2019-01-19T11:03:13.069Z,10.83
2019-01-19T11:05:42.696Z,11.31
2019-01-19T11:08:13.631Z,11.50
2019-01-19T11:10:43.343Z,11.57
2019-01-19T11:13:13.089Z,11.60
2019-01-19T11:15:42.705Z,11.54
2019-01-19T11:18:12.410Z,11.71
2019-01-19T11:20:42.032Z,11.19
2019-01-19T11:23:11.656Z,10.98
2019-01-19T11:25:41.414Z,11.00
2019-01-19T11:28:11.059Z,10.84
2019-01-19T11:30:40.688Z,11.42
2019-01-19T11:33:10.372Z,11.34
2019-01-19T11:35:40.043Z,11.40
2019-01-19T11:38:12.104Z,11.16
2019-01-19T11:40:41.111Z,10.69
2019-01-19T11:43:11.630Z,11.02
2019-01-19T11:45:41.233Z,11.25
2019-01-19T11:48:10.866Z,10.84
2019-01-19T11:50:40.588Z,10.72
2019-01-19T11:53:10.206Z,11.00
2019-01-19T11:55:39.919Z,10.41
2019-01-19T11:58:09.520Z,10.85
2019-01-19T12:00:40.458Z,11.27
2019-01-19T12:03:10.270Z,11.61
2019-01-19T12:05:40.564Z,11.86
2019-01-19T12:08:19.211Z,11.67
2019-01-19T12:10:43.222Z,11.91
2019-01-19T12:13:12.979Z,10.77
2019-01-19T12:15:42.614Z,10.44
2019-01-19T12:18:12.357Z,10.46
2019-01-19T12:20:44.473Z,10.93
2019-01-19T12:23:14.124Z,11.19
2019-01-19T12:25:44.038Z,10.65
2019-01-19T12:28:13.758Z,10.94
2019-01-19T12:30:43.379Z,10.68
2019-01-19T12:33:13.273Z,10.57
2019-01-19T12:35:42.913Z,10.28
2019-01-19T12:38:12.585Z,10.29
2019-01-19T12:40:42.277Z,10.21
2019-01-19T12:43:17.532Z,10.23
2019-01-19T12:45:58.055Z,9.87
2019-01-19T12:48:27.703Z,9.84
2019-01-19T12:50:57.476Z,9.74
2019-01-19T12:53:27.611Z,9.91
2019-01-19T12:55:57.252Z,10.01
2019-01-19T12:58:26.870Z,9.88
2019-01-19T13:00:56.608Z,10.08
2019-01-19T13:03:26.531Z,10.06
2019-01-19T13:06:27.240Z,9.97
2019-01-19T13:08:57.092Z,10.01
2019-01-19T13:11:53.785Z,9.97
2019-01-19T13:14:23.579Z,9.75
2019-01-19T13:17:32.639Z,9.72
2019-01-19T13:20:23.493Z,9.80
2019-01-19T13:23:14.671Z,10.14
2019-01-19T13:26:30.666Z,9.84
2019-01-19T13:29:25.715Z,10.10
2019-01-19T13:32:45.230Z,10.38
2019-01-19T13:35:51.486Z,10.34
2019-01-19T13:39:06.970Z,10.36
2019-01-19T13:42:29.672Z,10.37
2019-01-19T13:45:53.753Z,11.21
2019-01-19T13:48:48.037Z,11.53
2019-01-19T13:51:54.634Z,11.47
2019-01-19T13:55:03.431Z,11.20
2019-01-19T13:58:31.945Z,10.45
2019-01-19T14:01:49.765Z,10.03
2019-01-19T14:04:30.167Z,9.35
2019-01-19T14:07:55.762Z,9.16
2019-01-19T14:10:50.594Z,8.78
2019-01-19T14:13:34.269Z,8.63
2019-01-19T14:16:29.374Z,8.68
2019-01-19T14:19:39.776Z,8.49
2019-01-19T14:22:43.868Z,8.34
2019-01-19T14:25:35.700Z,8.80
2019-01-19T14:28:43.578Z,9.31
2019-01-19T14:31:43.573Z,10.00
2019-01-19T14:34:22.219Z,10.22
2019-01-19T14:37:38.547Z,9.21
2019-01-19T14:40:39.058Z,8.71
2019-01-19T14:43:42.161Z,8.33
2019-01-19T14:46:51.085Z,8.02
2019-01-19T14:49:49.439Z,7.98
2019-01-19T14:52:59.645Z,7.64
2019-01-19T14:55:53.444Z,7.62
2019-01-19T14:58:49.709Z,7.50
2019-01-19T15:01:58.543Z,7.43
2019-01-19T15:05:03.655Z,7.92
2019-01-19T15:08:07.191Z,8.14
2019-01-19T15:10:54.128Z,8.05
2019-01-19T15:14:01.784Z,8.03
2019-01-19T15:17:14.478Z,8.04
2019-01-19T15:20:15.664Z,8.00
2019-01-19T15:23:22.127Z,8.06
2019-01-19T15:26:38.190Z,8.11
2019-01-19T15:29:48.808Z,8.00
2019-01-19T15:32:57.847Z,7.96
2019-01-19T15:35:57.001Z,8.00
2019-01-19T15:38:39.397Z,8.01
2019-01-19T15:41:47.167Z,7.97
2019-01-19T15:44:47.680Z,8.20
2019-01-19T15:47:39.624Z,8.29
2019-01-19T15:50:31.183Z,8.23
2019-01-19T15:53:36.376Z,8.21
2019-01-19T15:56:39.436Z,8.12
2019-01-19T16:00:13.731Z,7.46
2019-01-19T16:03:11.663Z,7.40
2019-01-19T16:06:23.739Z,7.44
2019-01-19T16:09:39.080Z,7.60
2019-01-19T16:12:38.232Z,7.29
2019-01-19T16:15:44.513Z,7.04
2019-01-19T16:18:53.642Z,7.13
2019-01-19T16:21:54.171Z,7.11
2019-01-19T16:24:39.539Z,7.42
2019-01-19T16:27:20.700Z,7.63
2019-01-19T16:30:03.527Z,7.52
2019-01-19T16:33:20.019Z,7.34
2019-01-19T16:36:18.291Z,7.54
2019-01-19T16:39:36.460Z,7.51
2019-01-19T16:42:41.113Z,7.36
2019-01-19T16:45:39.456Z,7.16
2019-01-19T16:48:45.149Z,7.12
2019-01-19T16:51:58.565Z,7.27
2019-01-19T16:55:02.302Z,7.14
2019-01-19T16:58:33.657Z,6.79
2019-01-19T17:01:27.463Z,6.80
2019-01-19T17:04:41.489Z,6.55
2019-01-19T17:07:54.511Z,6.69
2019-01-19T17:11:00.783Z,6.78
2019-01-19T17:14:13.494Z,6.72
2019-01-19T17:17:14.503Z,6.55
2019-01-19T17:20:25.277Z,6.43
2019-01-19T17:23:11.601Z,6.43
2019-01-19T17:26:14.974Z,6.29
2019-01-19T17:29:12.035Z,6.28
2019-01-19T17:31:51.009Z,6.27
2019-01-19T17:35:01.512Z,6.43
2019-01-19T17:38:13.651Z,6.47
2019-01-19T17:41:14.084Z,6.21
2019-01-19T17:44:17.534Z,6.34
2019-01-19T17:47:15.051Z,6.19
2019-01-19T17:50:29.083Z,6.19
2019-01-19T17:53:36.906Z,6.09
2019-01-19T17:56:56.675Z,5.94
2019-01-19T17:59:42.315Z,5.85
2019-01-19T18:02:48.604Z,5.74
2019-01-19T18:05:49.753Z,5.65
2019-01-19T18:08:59.888Z,5.66
2019-01-19T18:12:04.991Z,5.63
2019-01-19T18:15:13.501Z,5.59
2019-01-19T18:18:07.780Z,5.47
2019-01-19T18:21:19.760Z,5.41
2019-01-19T18:24:33.065Z,5.41
2019-01-19T18:27:48.883Z,5.31
2019-01-19T18:30:43.619Z,5.22
2019-01-19T18:33:38.412Z,5.15
2019-01-19T18:36:42.669Z,5.16
2019-01-19T18:39:43.841Z,5.17
2019-01-19T18:42:51.777Z,5.32
2019-01-19T18:45:58.636Z,5.23
2019-01-19T18:49:17.821Z,5.19
2019-01-19T18:52:28.532Z,5.33
2019-01-19T18:55:24.631Z,5.35
2019-01-19T18:58:34.831Z,5.33
2019-01-19T19:01:55.583Z,5.40
2019-01-19T19:05:17.623Z,5.32
2019-01-19T19:08:38.560Z,5.28
2019-01-19T19:11:35.723Z,5.37
2019-01-19T19:14:26.612Z,5.32
2019-01-19T19:17:31.560Z,5.33
2019-01-19T19:20:44.585Z,5.26
2019-01-19T19:23:44.145Z,5.34
2019-01-19T19:26:53.414Z,5.27
2019-01-19T19:30:00.223Z,5.24
2019-01-19T19:33:08.493Z,5.23
2019-01-19T19:36:17.447Z,5.09
2019-01-19T19:39:17.562Z,5.08
2019-01-19T19:42:10.686Z,4.99
2019-01-19T19:45:36.063Z,4.96
2019-01-19T19:48:30.363Z,4.96
2019-01-19T19:51:46.677Z,5.01
2019-01-19T19:54:16.463Z,4.92
2019-01-19T19:56:44.244Z,4.82
2019-01-19T19:59:14.001Z,4.99
2019-01-19T20:01:43.677Z,4.89
2019-01-19T20:04:13.388Z,4.84
2019-01-19T20:06:43.056Z,4.75
2019-01-19T20:09:13.051Z,4.75
2019-01-19T20:11:42.749Z,4.86
2019-01-19T20:14:12.709Z,4.81
2019-01-19T20:16:42.557Z,4.69
2019-01-19T20:19:12.232Z,4.65
2019-01-19T20:21:41.908Z,4.70
2019-01-19T20:24:11.681Z,4.77
2019-01-19T20:26:41.390Z,4.75
2019-01-19T20:29:11.087Z,4.85
2019-01-19T20:31:40.753Z,4.79
2019-01-19T20:34:10.410Z,4.69
2019-01-19T20:36:40.207Z,4.65
2019-01-19T20:39:10.864Z,4.75
2019-01-19T20:41:40.570Z,4.66
2019-01-19T20:44:10.293Z,4.58
2019-01-19T20:46:39.964Z,4.58
2019-01-19T20:49:09.635Z,4.58
2019-01-19T20:51:39.345Z,4.65
2019-01-19T20:54:09.052Z,4.62
2019-01-19T20:56:38.708Z,4.67
2019-01-19T20:59:08.460Z,4.68
2019-01-19T21:01:38.146Z,4.70
2019-01-19T21:04:07.855Z,4.60
2019-01-19T21:06:37.591Z,4.59
2019-01-19T21:09:11.726Z,4.63
2019-01-19T21:11:41.421Z,4.68
2019-01-19T21:14:11.154Z,4.67
2019-01-19T21:16:41.006Z,4.74
2019-01-19T21:19:10.838Z,4.61
2019-01-19T21:21:40.488Z,4.56
2019-01-19T21:24:10.165Z,4.53
2019-01-19T21:26:39.822Z,4.48
2019-01-19T21:29:09.477Z,4.56
2019-01-19T21:31:39.224Z,4.53
2019-01-19T21:34:08.835Z,4.58
2019-01-19T21:36:38.531Z,4.46
2019-01-19T21:39:09.407Z,4.49
2019-01-19T21:41:39.088Z,4.43
2019-01-19T21:44:08.767Z,4.53
2019-01-19T21:46:38.390Z,4.45
2019-01-19T21:49:08.075Z,4.42
2019-01-19T21:51:37.742Z,4.45
2019-01-19T21:54:07.421Z,4.47
2019-01-19T21:56:37.106Z,4.52
2019-01-19T21:59:06.779Z,4.45
2019-01-19T22:01:36.417Z,4.46
2019-01-19T22:04:06.138Z,4.50
2019-01-19T22:06:35.777Z,4.58
2019-01-19T22:09:07.667Z,4.47
2019-01-19T22:11:37.385Z,4.48
2019-01-19T22:14:07.089Z,4.37
2019-01-19T22:16:36.762Z,4.41
2019-01-19T22:19:06.743Z,4.39
2019-01-19T22:21:36.361Z,4.35
2019-01-19T22:24:06.047Z,4.33
2019-01-19T22:26:36.154Z,4.34
2019-01-19T22:29:08.670Z,4.51
2019-01-19T22:31:38.466Z,4.45
2019-01-19T22:34:08.116Z,4.46
2019-01-19T22:36:37.817Z,4.47
2019-01-19T22:39:08.850Z,4.50
2019-01-19T22:41:38.548Z,4.52
2019-01-19T22:44:08.213Z,4.67
2019-01-19T22:46:37.854Z,4.78
2019-01-19T22:49:07.545Z,4.75
2019-01-19T22:51:38.208Z,4.77
2019-01-19T22:54:07.961Z,4.81
2019-01-19T22:56:37.643Z,4.94
2019-01-19T22:59:07.362Z,4.93
2019-01-19T23:01:41.007Z,4.98
2019-01-19T23:04:10.708Z,4.86
2019-01-19T23:06:40.350Z,4.85
2019-01-19T23:09:11.982Z,4.79
2019-01-19T23:11:41.875Z,4.87
2019-01-19T23:14:12.546Z,4.97
2019-01-19T23:16:42.417Z,5.07
2019-01-19T23:19:12.166Z,4.97
2019-01-19T23:21:41.839Z,4.94
2019-01-19T23:24:11.507Z,4.93
2019-01-19T23:26:41.427Z,4.89
2019-01-19T23:29:11.111Z,5.03
2019-01-19T23:31:40.743Z,5.13
2019-01-19T23:34:10.468Z,5.16
2019-01-19T23:36:40.193Z,5.21
2019-01-19T23:39:11.220Z,5.20
2019-01-19T23:41:40.863Z,5.28
2019-01-19T23:44:10.558Z,5.18
2019-01-19T23:46:40.197Z,5.12
2019-01-19T23:49:09.918Z,5.21
2019-01-19T23:51:39.536Z,5.18
2019-01-19T23:54:09.313Z,5.09
2019-01-19T23:56:38.974Z,5.12
2019-01-19T23:59:08.616Z,5.09
